sensor_id;sensor_type;location;lat;lon;timestamp;temperature;humidity
35305;DHT22;26433;48.034;-1.764;2023-05-17T05:02:51;10.10;78.60
35305;DHT22;26433;48.034;-1.764;2023-05-17T05:07:56;10.00;79.00
35305;DHT22;26433;48.034;-1.764;2023-05-17T05:13:01;10.10;79.50
35305;DHT22;26433;48.034;-1.764;2023-05-17T05:18:06;10.10;79.40
35305;DHT22;26433;48.034;-1.764;2023-05-17T05:23:10;10.20;79.60
35305;DHT22;26433;48.034;-1.764;2023-05-17T05:28:15;10.20;79.70
35305;DHT22;26433;48.034;-1.764;2023-05-17T05:33:20;10.30;79.60
35305;DHT22;26433;48.034;-1.764;2023-05-17T05:38:24;10.40;79.70
35305;DHT22;26433;48.034;-1.764;2023-05-17T05:43:29;10.50;79.80
35305;DHT22;26433;48.034;-1.764;2023-05-17T05:48:34;10.60;79.80
35305;DHT22;26433;48.034;-1.764;2023-05-17T05:53:41;10.70;80.00
35305;DHT22;26433;48.034;-1.764;2023-05-17T05:58:44;10.90;79.80
35305;DHT22;26433;48.034;-1.764;2023-05-17T06:03:49;10.90;80.00
35305;DHT22;26433;48.034;-1.764;2023-05-17T06:08:53;11.10;80.20
35305;DHT22;26433;48.034;-1.764;2023-05-17T06:14:00;11.20;80.20
35305;DHT22;26433;48.034;-1.764;2023-05-17T06:19:05;11.30;80.50
35305;DHT22;26433;48.034;-1.764;2023-05-17T06:24:09;11.50;80.30
35305;DHT22;26433;48.034;-1.764;2023-05-17T06:29:13;11.60;80.40
35305;DHT22;26433;48.034;-1.764;2023-05-17T06:34:17;11.70;80.60
35305;DHT22;26433;48.034;-1.764;2023-05-17T06:39:21;11.90;80.80
35305;DHT22;26433;48.034;-1.764;2023-05-17T06:44:25;12.00;80.80
35305;DHT22;26433;48.034;-1.764;2023-05-17T06:49:30;12.10;81.00
35305;DHT22;26433;48.034;-1.764;2023-05-17T06:54:33;12.30;81.20
35305;DHT22;26433;48.034;-1.764;2023-05-17T06:59:37;12.50;81.20
35305;DHT22;26433;48.034;-1.764;2023-05-17T07:04:42;12.70;81.00
35305;DHT22;26433;48.034;-1.764;2023-05-17T07:09:46;12.80;81.30
35305;DHT22;26433;48.034;-1.764;2023-05-17T07:14:50;13.00;81.70
35305;DHT22;26433;48.034;-1.764;2023-05-17T07:19:55;13.30;81.50
35305;DHT22;26433;48.034;-1.764;2023-05-17T07:25:01;13.40;81.30
35305;DHT22;26433;48.034;-1.764;2023-05-17T07:30:07;13.60;81.30
35305;DHT22;26433;48.034;-1.764;2023-05-17T07:35:12;13.80;81.60
35305;DHT22;26433;48.034;-1.764;2023-05-17T07:40:16;14.00;81.20
35305;DHT22;26433;48.034;-1.764;2023-05-17T07:45:19;14.30;80.50
35305;DHT22;26433;48.034;-1.764;2023-05-17T07:50:25;14.50;79.90
35305;DHT22;26433;48.034;-1.764;2023-05-17T07:55:29;14.60;80.30
35305;DHT22;26433;48.034;-1.764;2023-05-17T08:00:32;14.90;80.40
35305;DHT22;26433;48.034;-1.764;2023-05-17T08:05:37;15.20;80.30
35305;DHT22;26433;48.034;-1.764;2023-05-17T08:10:41;15.50;80.00
35305;DHT22;26433;48.034;-1.764;2023-05-17T08:15:45;15.80;79.60
35305;DHT22;26433;48.034;-1.764;2023-05-17T08:20:52;16.20;79.20
35305;DHT22;26433;48.034;-1.764;2023-05-17T08:25:56;16.50;78.40
35305;DHT22;26433;48.034;-1.764;2023-05-17T08:30:59;17.00;77.30
35305;DHT22;26433;48.034;-1.764;2023-05-17T08:36:05;17.40;76.10
35305;DHT22;26433;48.034;-1.764;2023-05-17T08:41:10;17.90;74.80
35305;DHT22;26433;48.034;-1.764;2023-05-17T08:46:13;18.40;73.40
35305;DHT22;26433;48.034;-1.764;2023-05-17T08:51:19;19.00;71.50
35305;DHT22;26433;48.034;-1.764;2023-05-17T08:56:25;19.70;69.20
35305;DHT22;26433;48.034;-1.764;2023-05-17T09:01:29;20.40;67.50
35305;DHT22;26433;48.034;-1.764;2023-05-17T09:06:36;21.20;66.00
35305;DHT22;26433;48.034;-1.764;2023-05-17T09:11:39;21.90;64.10
35305;DHT22;26433;48.034;-1.764;2023-05-17T09:16:43;22.50;62.80
35305;DHT22;26433;48.034;-1.764;2023-05-17T09:21:48;23.10;61.80
35305;DHT22;26433;48.034;-1.764;2023-05-17T09:26:52;23.70;60.50
35305;DHT22;26433;48.034;-1.764;2023-05-17T09:31:56;24.40;59.20
35305;DHT22;26433;48.034;-1.764;2023-05-17T09:37:01;24.70;58.40
35305;DHT22;26433;48.034;-1.764;2023-05-17T09:42:05;24.80;58.10
35305;DHT22;26433;48.034;-1.764;2023-05-17T09:47:10;24.90;57.90
35305;DHT22;26433;48.034;-1.764;2023-05-17T09:52:18;25.20;57.30
35305;DHT22;26433;48.034;-1.764;2023-05-17T09:57:22;25.60;56.30
35305;DHT22;26433;48.034;-1.764;2023-05-17T10:02:30;25.80;55.60
35305;DHT22;26433;48.034;-1.764;2023-05-17T10:07:37;25.60;55.20
35305;DHT22;26433;48.034;-1.764;2023-05-17T10:12:40;25.40;55.10
35305;DHT22;26433;48.034;-1.764;2023-05-17T10:17:45;24.90;55.40
35305;DHT22;26433;48.034;-1.764;2023-05-17T10:22:51;24.50;55.50
35305;DHT22;26433;48.034;-1.764;2023-05-17T10:27:55;24.30;55.40
35305;DHT22;26433;48.034;-1.764;2023-05-17T10:32:59;24.00;55.30
35305;DHT22;26433;48.034;-1.764;2023-05-17T10:38:05;24.00;54.80
35305;DHT22;26433;48.034;-1.764;2023-05-17T10:43:08;24.20;54.50
35305;DHT22;26433;48.034;-1.764;2023-05-17T10:48:14;24.50;54.10
35305;DHT22;26433;48.034;-1.764;2023-05-17T10:53:20;24.60;53.80
35305;DHT22;26433;48.034;-1.764;2023-05-17T10:58:25;24.70;53.00
35305;DHT22;26433;48.034;-1.764;2023-05-17T11:03:30;24.50;53.00
35305;DHT22;26433;48.034;-1.764;2023-05-17T11:08:42;25.10;52.30
35305;DHT22;26433;48.034;-1.764;2023-05-17T11:13:50;25.90;51.00
35305;DHT22;26433;48.034;-1.764;2023-05-17T11:19:05;26.40;50.20
35305;DHT22;26433;48.034;-1.764;2023-05-17T11:24:15;27.30;49.00
35305;DHT22;26433;48.034;-1.764;2023-05-17T11:29:28;27.80;47.90
35305;DHT22;26433;48.034;-1.764;2023-05-17T11:34:32;28.20;47.50
35305;DHT22;26433;48.034;-1.764;2023-05-17T11:40:01;28.50;47.00
35305;DHT22;26433;48.034;-1.764;2023-05-17T11:45:07;29.00;45.90
35305;DHT22;26433;48.034;-1.764;2023-05-17T11:50:10;28.80;46.30
35305;DHT22;26433;48.034;-1.764;2023-05-17T11:55:17;28.70;46.20
35305;DHT22;26433;48.034;-1.764;2023-05-17T12:00:24;29.10;45.40
35305;DHT22;26433;48.034;-1.764;2023-05-17T12:05:29;29.40;44.80
35305;DHT22;26433;48.034;-1.764;2023-05-17T12:10:34;29.70;44.40
35305;DHT22;26433;48.034;-1.764;2023-05-17T12:15:39;30.00;43.80
35305;DHT22;26433;48.034;-1.764;2023-05-17T12:20:56;30.00;43.40
35305;DHT22;26433;48.034;-1.764;2023-05-17T12:26:06;30.00;42.90
35305;DHT22;26433;48.034;-1.764;2023-05-17T12:31:12;29.60;43.10
35305;DHT22;26433;48.034;-1.764;2023-05-17T12:36:17;29.60;43.10
35305;DHT22;26433;48.034;-1.764;2023-05-17T12:41:23;29.80;42.80
35305;DHT22;26433;48.034;-1.764;2023-05-17T12:46:28;29.90;42.50
35305;DHT22;26433;48.034;-1.764;2023-05-17T12:51:38;29.80;42.40
35305;DHT22;26433;48.034;-1.764;2023-05-17T12:56:44;30.00;42.10
35305;DHT22;26433;48.034;-1.764;2023-05-17T13:01:48;29.50;42.50
35305;DHT22;26433;48.034;-1.764;2023-05-17T13:06:56;29.30;41.80
35305;DHT22;26433;48.034;-1.764;2023-05-17T13:12:05;28.90;41.70
35305;DHT22;26433;48.034;-1.764;2023-05-17T13:17:10;28.20;41.80
35305;DHT22;26433;48.034;-1.764;2023-05-17T13:22:14;27.50;42.20
35305;DHT22;26433;48.034;-1.764;2023-05-17T13:27:19;27.60;41.90
35305;DHT22;26433;48.034;-1.764;2023-05-17T13:32:22;27.90;41.40
35305;DHT22;26433;48.034;-1.764;2023-05-17T13:37:27;28.20;41.20
35305;DHT22;26433;48.034;-1.764;2023-05-17T13:42:32;27.80;41.20
35305;DHT22;26433;48.034;-1.764;2023-05-17T13:47:36;27.60;41.10
35305;DHT22;26433;48.034;-1.764;2023-05-17T13:52:40;27.60;41.00
35305;DHT22;26433;48.034;-1.764;2023-05-17T13:57:45;28.00;40.70
35305;DHT22;26433;48.034;-1.764;2023-05-17T14:02:48;28.10;40.40
35305;DHT22;26433;48.034;-1.764;2023-05-17T14:07:52;27.60;40.60
35305;DHT22;26433;48.034;-1.764;2023-05-17T14:12:57;27.20;40.50
35305;DHT22;26433;48.034;-1.764;2023-05-17T14:18:01;27.00;40.40
35305;DHT22;26433;48.034;-1.764;2023-05-17T14:23:04;26.50;41.20
35305;DHT22;26433;48.034;-1.764;2023-05-17T14:28:09;25.70;41.20
35305;DHT22;26433;48.034;-1.764;2023-05-17T14:33:14;25.40;41.80
35305;DHT22;26433;48.034;-1.764;2023-05-17T14:38:19;25.50;41.60
35305;DHT22;26433;48.034;-1.764;2023-05-17T14:43:25;25.40;41.40
35305;DHT22;26433;48.034;-1.764;2023-05-17T14:48:29;25.10;41.50
35305;DHT22;26433;48.034;-1.764;2023-05-17T14:53:34;24.60;42.10
35305;DHT22;26433;48.034;-1.764;2023-05-17T14:58:39;24.10;42.40
35305;DHT22;26433;48.034;-1.764;2023-05-17T15:03:43;23.80;42.70
35305;DHT22;26433;48.034;-1.764;2023-05-17T15:08:47;23.60;42.60
35305;DHT22;26433;48.034;-1.764;2023-05-17T15:13:52;23.40;42.60
35305;DHT22;26433;48.034;-1.764;2023-05-17T15:18:56;23.10;42.80
35305;DHT22;26433;48.034;-1.764;2023-05-17T15:24:00;22.80;42.90
35305;DHT22;26433;48.034;-1.764;2023-05-17T15:29:05;22.60;43.20
35305;DHT22;26433;48.034;-1.764;2023-05-17T15:34:08;22.50;43.40
35305;DHT22;26433;48.034;-1.764;2023-05-17T15:39:12;22.50;43.60
35305;DHT22;26433;48.034;-1.764;2023-05-17T15:44:17;22.30;43.60
35305;DHT22;26433;48.034;-1.764;2023-05-17T15:49:21;22.10;43.90
35305;DHT22;26433;48.034;-1.764;2023-05-17T15:54:25;22.00;44.00
35305;DHT22;26433;48.034;-1.764;2023-05-17T15:59:30;22.00;44.30
35305;DHT22;26433;48.034;-1.764;2023-05-17T16:04:34;21.90;44.20
35305;DHT22;26433;48.034;-1.764;2023-05-17T16:09:38;21.90;44.20
35305;DHT22;26433;48.034;-1.764;2023-05-17T16:14:43;21.80;44.30
35305;DHT22;26433;48.034;-1.764;2023-05-17T16:19:47;21.70;44.60
35305;DHT22;26433;48.034;-1.764;2023-05-17T16:24:51;21.50;45.10
35305;DHT22;26433;48.034;-1.764;2023-05-17T16:29:56;21.30;45.60
35305;DHT22;26433;48.034;-1.764;2023-05-17T16:35:00;21.20;45.90
35305;DHT22;26433;48.034;-1.764;2023-05-17T16:40:05;21.20;46.00
35305;DHT22;26433;48.034;-1.764;2023-05-17T16:45:10;21.30;46.30
35305;DHT22;26433;48.034;-1.764;2023-05-17T16:50:14;21.20;46.70
35305;DHT22;26433;48.034;-1.764;2023-05-17T16:55:18;21.20;47.40
35305;DHT22;26433;48.034;-1.764;2023-05-17T17:00:23;21.00;47.70
35305;DHT22;26433;48.034;-1.764;2023-05-17T17:05:27;20.80;48.30
35305;DHT22;26433;48.034;-1.764;2023-05-17T17:10:36;20.50;48.70
35305;DHT22;26433;48.034;-1.764;2023-05-17T17:15:41;20.40;49.20
35305;DHT22;26433;48.034;-1.764;2023-05-17T17:20:45;20.30;49.40
35305;DHT22;26433;48.034;-1.764;2023-05-17T17:25:49;20.20;49.80
35305;DHT22;26433;48.034;-1.764;2023-05-17T17:30:54;20.20;50.10
35305;DHT22;26433;48.034;-1.764;2023-05-17T17:35:58;20.10;50.40
35305;DHT22;26433;48.034;-1.764;2023-05-17T17:41:01;20.00;50.70
35305;DHT22;26433;48.034;-1.764;2023-05-17T17:46:06;19.90;51.00
35305;DHT22;26433;48.034;-1.764;2023-05-17T17:51:10;19.70;51.10
35305;DHT22;26433;48.034;-1.764;2023-05-17T17:56:14;19.60;51.50
35305;DHT22;26433;48.034;-1.764;2023-05-17T18:01:19;19.40;52.00
35305;DHT22;26433;48.034;-1.764;2023-05-17T18:06:23;19.30;52.80
35305;DHT22;26433;48.034;-1.764;2023-05-17T18:11:26;19.20;52.70
35305;DHT22;26433;48.034;-1.764;2023-05-17T18:16:31;19.10;53.40
35305;DHT22;26433;48.034;-1.764;2023-05-17T18:21:35;19.10;53.10
35305;DHT22;26433;48.034;-1.764;2023-05-17T18:26:39;19.10;53.10
35305;DHT22;26433;48.034;-1.764;2023-05-17T18:31:44;19.20;53.80
35305;DHT22;26433;48.034;-1.764;2023-05-17T18:36:48;19.20;53.40
35305;DHT22;26433;48.034;-1.764;2023-05-17T18:41:52;19.10;53.40
35305;DHT22;26433;48.034;-1.764;2023-05-17T18:46:57;19.20;53.60
35305;DHT22;26433;48.034;-1.764;2023-05-17T18:52:01;19.10;54.00
35305;DHT22;26433;48.034;-1.764;2023-05-17T18:57:05;19.10;54.00
35305;DHT22;26433;48.034;-1.764;2023-05-17T19:02:13;19.10;54.30
35305;DHT22;26433;48.034;-1.764;2023-05-17T19:07:17;19.00;54.50
35305;DHT22;26433;48.034;-1.764;2023-05-17T19:12:21;19.00;54.70
35305;DHT22;26433;48.034;-1.764;2023-05-17T19:17:26;18.90;54.90
35305;DHT22;26433;48.034;-1.764;2023-05-17T19:22:30;18.80;55.30
35305;DHT22;26433;48.034;-1.764;2023-05-17T19:27:33;18.60;55.60
35305;DHT22;26433;48.034;-1.764;2023-05-17T19:32:38;18.50;55.70
35305;DHT22;26433;48.034;-1.764;2023-05-17T19:37:42;18.40;56.00
35305;DHT22;26433;48.034;-1.764;2023-05-17T19:42:46;18.30;56.40
35305;DHT22;26433;48.034;-1.764;2023-05-17T19:47:51;18.10;56.70
35305;DHT22;26433;48.034;-1.764;2023-05-17T19:52:55;18.00;57.20
35305;DHT22;26433;48.034;-1.764;2023-05-17T19:58:00;17.80;57.40
35305;DHT22;26433;48.034;-1.764;2023-05-17T20:03:05;17.70;57.50
35305;DHT22;26433;48.034;-1.764;2023-05-17T20:08:09;17.60;58.00
35305;DHT22;26433;48.034;-1.764;2023-05-17T20:13:13;17.50;58.30
35305;DHT22;26433;48.034;-1.764;2023-05-17T20:18:18;17.30;58.60
35305;DHT22;26433;48.034;-1.764;2023-05-17T20:23:22;17.30;58.90
35305;DHT22;26433;48.034;-1.764;2023-05-17T20:28:25;17.10;59.20
35305;DHT22;26433;48.034;-1.764;2023-05-17T20:33:31;17.00;59.50
35305;DHT22;26433;48.034;-1.764;2023-05-17T20:38:34;16.90;59.70
35305;DHT22;26433;48.034;-1.764;2023-05-17T20:43:38;16.80;60.00
35305;DHT22;26433;48.034;-1.764;2023-05-17T20:48:43;16.70;60.30
35305;DHT22;26433;48.034;-1.764;2023-05-17T20:53:49;16.50;60.60
35305;DHT22;26433;48.034;-1.764;2023-05-17T20:58:52;16.50;61.00
35305;DHT22;26433;48.034;-1.764;2023-05-17T21:03:58;16.30;61.30
35305;DHT22;26433;48.034;-1.764;2023-05-17T21:09:02;16.30;61.60
35305;DHT22;26433;48.034;-1.764;2023-05-17T21:14:05;16.20;61.80
35305;DHT22;26433;48.034;-1.764;2023-05-17T21:19:10;16.10;62.10
35305;DHT22;26433;48.034;-1.764;2023-05-17T21:24:15;16.00;62.40
35305;DHT22;26433;48.034;-1.764;2023-05-17T21:29:19;15.80;62.60
35305;DHT22;26433;48.034;-1.764;2023-05-17T21:34:24;15.70;63.00
35305;DHT22;26433;48.034;-1.764;2023-05-17T21:39:28;15.60;63.30
35305;DHT22;26433;48.034;-1.764;2023-05-17T21:44:31;15.50;63.60
35305;DHT22;26433;48.034;-1.764;2023-05-17T21:49:37;15.30;64.10
35305;DHT22;26433;48.034;-1.764;2023-05-17T21:54:40;15.20;64.30
35305;DHT22;26433;48.034;-1.764;2023-05-17T21:59:44;15.10;64.80
35305;DHT22;26433;48.034;-1.764;2023-05-17T22:04:49;15.00;65.20
35305;DHT22;26433;48.034;-1.764;2023-05-17T22:09:53;14.90;65.40
35305;DHT22;26433;48.034;-1.764;2023-05-17T22:14:57;14.80;65.80
35305;DHT22;26433;48.034;-1.764;2023-05-17T22:20:02;14.80;66.60
35305;DHT22;26433;48.034;-1.764;2023-05-17T22:25:07;14.60;66.60
